sensor_id;sensor_type;location;lat;lon;timestamp;pressure;altitude;pressure_sealevel;temperature;humidity
54554;BME280;40450;55.848;-3.572;2022-09-12T00:00:15;98461.79;;;14.90;99.60
54554;BME280;40450;55.848;-3.572;2022-09-12T00:02:46;98462.72;;;15.16;99.17
54554;BME280;40450;55.848;-3.572;2022-09-12T00:05:16;98459.56;;;15.28;98.85
54554;BME280;40450;55.848;-3.572;2022-09-12T00:07:46;98458.08;;;15.88;98.41
54554;BME280;40450;55.848;-3.572;2022-09-12T00:10:17;98449.88;;;16.39;97.14
54554;BME280;40450;55.848;-3.572;2022-09-12T00:12:47;98446.62;;;16.33;96.04
54554;BME280;40450;55.848;-3.572;2022-09-12T00:15:17;98456.11;;;15.87;97.31
54554;BME280;40450;55.848;-3.572;2022-09-12T00:17:47;98450.97;;;16.75;96.20
54554;BME280;40450;55.848;-3.572;2022-09-12T00:20:18;98452.82;;;17.55;94.09
54554;BME280;40450;55.848;-3.572;2022-09-12T00:22:48;98451.66;;;17.83;93.11
54554;BME280;40450;55.848;-3.572;2022-09-12T00:25:18;98456.99;;;17.69;91.25
54554;BME280;40450;55.848;-3.572;2022-09-12T00:27:48;98454.09;;;18.33;92.04
54554;BME280;40450;55.848;-3.572;2022-09-12T00:30:19;98454.57;;;18.52;90.67
54554;BME280;40450;55.848;-3.572;2022-09-12T00:32:49;98451.77;;;18.60;90.94
54554;BME280;40450;55.848;-3.572;2022-09-12T00:35:19;98454.24;;;18.66;90.60
54554;BME280;40450;55.848;-3.572;2022-09-12T00:37:50;98459.56;;;17.70;91.14
54554;BME280;40450;55.848;-3.572;2022-09-12T00:40:20;98457.13;;;17.71;90.85
54554;BME280;40450;55.848;-3.572;2022-09-12T00:42:50;98453.33;;;17.89;90.41
54554;BME280;40450;55.848;-3.572;2022-09-12T00:45:23;98454.07;;;16.87;91.94
54554;BME280;40450;55.848;-3.572;2022-09-12T00:47:51;98458.71;;;17.36;91.62
54554;BME280;40450;55.848;-3.572;2022-09-12T00:50:21;98453.24;;;18.02;90.60
54554;BME280;40450;55.848;-3.572;2022-09-12T00:52:57;98455.47;;;18.18;89.46
54554;BME280;40450;55.848;-3.572;2022-09-12T00:55:24;98454.89;;;18.87;88.30
54554;BME280;40450;55.848;-3.572;2022-09-12T00:57:54;98459.30;;;18.27;88.84
54554;BME280;40450;55.848;-3.572;2022-09-12T01:00:24;98457.97;;;18.15;88.37
54554;BME280;40450;55.848;-3.572;2022-09-12T01:02:55;98460.65;;;18.30;88.88
54554;BME280;40450;55.848;-3.572;2022-09-12T01:05:24;98465.96;;;18.05;89.02
54554;BME280;40450;55.848;-3.572;2022-09-12T01:07:54;98460.62;;;17.78;88.93
54554;BME280;40450;55.848;-3.572;2022-09-12T01:10:24;98471.01;;;17.72;89.47
54554;BME280;40450;55.848;-3.572;2022-09-12T01:12:54;98475.51;;;16.92;91.90
54554;BME280;40450;55.848;-3.572;2022-09-12T01:15:25;98475.54;;;17.70;89.37
54554;BME280;40450;55.848;-3.572;2022-09-12T01:18:06;98473.03;;;17.09;90.77
54554;BME280;40450;55.848;-3.572;2022-09-12T01:23:06;98468.00;;;17.86;89.16
54554;BME280;40450;55.848;-3.572;2022-09-12T01:25:30;98472.25;;;17.33;90.15
54554;BME280;40450;55.848;-3.572;2022-09-12T01:28:11;98473.52;;;17.59;89.38
54554;BME280;40450;55.848;-3.572;2022-09-12T01:33:13;98477.52;;;17.69;89.54
54554;BME280;40450;55.848;-3.572;2022-09-12T01:35:34;98472.26;;;17.79;88.91
54554;BME280;40450;55.848;-3.572;2022-09-12T01:38:07;98468.11;;;17.63;88.39
54554;BME280;40450;55.848;-3.572;2022-09-12T01:40:32;98464.20;;;16.77;90.81
54554;BME280;40450;55.848;-3.572;2022-09-12T01:43:04;98460.21;;;17.73;88.11
54554;BME280;40450;55.848;-3.572;2022-09-12T01:45:32;98459.94;;;17.04;89.94
54554;BME280;40450;55.848;-3.572;2022-09-12T01:48:03;98460.25;;;17.99;87.19
54554;BME280;40450;55.848;-3.572;2022-09-12T01:50:33;98462.54;;;17.92;87.73
54554;BME280;40450;55.848;-3.572;2022-09-12T01:53:02;98467.21;;;16.78;89.63
54554;BME280;40450;55.848;-3.572;2022-09-12T01:55:32;98462.98;;;17.94;86.55
54554;BME280;40450;55.848;-3.572;2022-09-12T01:58:05;98466.23;;;18.01;85.31
54554;BME280;40450;55.848;-3.572;2022-09-12T02:00:33;98465.91;;;17.40;86.63
54554;BME280;40450;55.848;-3.572;2022-09-12T02:03:03;98470.41;;;17.26;86.90
54554;BME280;40450;55.848;-3.572;2022-09-12T02:05:33;98468.52;;;17.62;87.03
54554;BME280;40450;55.848;-3.572;2022-09-12T02:08:05;98471.88;;;17.76;86.77
54554;BME280;40450;55.848;-3.572;2022-09-12T02:10:33;98468.29;;;17.54;86.36
54554;BME280;40450;55.848;-3.572;2022-09-12T02:13:06;98469.53;;;16.36;89.46
54554;BME280;40450;55.848;-3.572;2022-09-12T02:15:37;98468.64;;;16.68;89.25
54554;BME280;40450;55.848;-3.572;2022-09-12T02:18:04;98466.06;;;17.40;87.65
54554;BME280;40450;55.848;-3.572;2022-09-12T02:20:35;98466.41;;;17.08;87.40
54554;BME280;40450;55.848;-3.572;2022-09-12T02:23:06;98474.25;;;16.85;88.58
54554;BME280;40450;55.848;-3.572;2022-09-12T02:25:33;98470.05;;;16.44;89.62
54554;BME280;40450;55.848;-3.572;2022-09-12T02:28:07;98475.07;;;16.01;90.75
54554;BME280;40450;55.848;-3.572;2022-09-12T02:30:38;98476.62;;;16.51;89.97
54554;BME280;40450;55.848;-3.572;2022-09-12T02:33:06;98484.00;;;15.69;92.12
54554;BME280;40450;55.848;-3.572;2022-09-12T02:35:38;98488.20;;;15.37;93.28
54554;BME280;40450;55.848;-3.572;2022-09-12T02:38:08;98486.99;;;16.32;90.95
54554;BME280;40450;55.848;-3.572;2022-09-12T02:40:35;98491.90;;;15.99;91.48
54554;BME280;40450;55.848;-3.572;2022-09-12T02:43:05;98496.02;;;15.67;91.89
54554;BME280;40450;55.848;-3.572;2022-09-12T02:45:36;98496.08;;;15.89;91.47
54554;BME280;40450;55.848;-3.572;2022-09-12T02:48:10;98497.26;;;15.89;91.99
54554;BME280;40450;55.848;-3.572;2022-09-12T02:50:36;98489.22;;;16.05;90.52
54554;BME280;40450;55.848;-3.572;2022-09-12T02:53:07;98495.19;;;15.93;90.69
54554;BME280;40450;55.848;-3.572;2022-09-12T02:55:39;98494.34;;;15.99;90.33
54554;BME280;40450;55.848;-3.572;2022-09-12T02:58:10;98500.36;;;16.02;90.13
54554;BME280;40450;55.848;-3.572;2022-09-12T03:00:41;98500.21;;;15.97;91.01
54554;BME280;40450;55.848;-3.572;2022-09-12T03:03:19;98504.86;;;16.48;89.74
54554;BME280;40450;55.848;-3.572;2022-09-12T03:05:44;98500.32;;;16.86;88.09
54554;BME280;40450;55.848;-3.572;2022-09-12T03:10:48;98484.19;;;16.97;86.40
54554;BME280;40450;55.848;-3.572;2022-09-12T03:13:17;98480.20;;;16.74;87.53
54554;BME280;40450;55.848;-3.572;2022-09-12T03:15:45;98485.50;;;16.29;88.30
54554;BME280;40450;55.848;-3.572;2022-09-12T03:18:20;98482.34;;;16.81;86.81
54554;BME280;40450;55.848;-3.572;2022-09-12T03:20:45;98483.62;;;16.57;87.15
54554;BME280;40450;55.848;-3.572;2022-09-12T03:23:19;98488.34;;;16.36;87.76
54554;BME280;40450;55.848;-3.572;2022-09-12T03:25:43;98492.91;;;16.55;87.96
54554;BME280;40450;55.848;-3.572;2022-09-12T03:28:13;98494.31;;;16.68;86.03
54554;BME280;40450;55.848;-3.572;2022-09-12T03:30:44;98507.73;;;15.24;90.44
54554;BME280;40450;55.848;-3.572;2022-09-12T03:33:12;98500.48;;;16.56;87.19
54554;BME280;40450;55.848;-3.572;2022-09-12T03:35:42;98504.99;;;16.74;87.07
54554;BME280;40450;55.848;-3.572;2022-09-12T03:38:12;98508.80;;;17.19;85.42
54554;BME280;40450;55.848;-3.572;2022-09-12T03:40:42;98510.71;;;17.54;84.42
54554;BME280;40450;55.848;-3.572;2022-09-12T03:43:13;98515.34;;;16.95;85.23
54554;BME280;40450;55.848;-3.572;2022-09-12T03:45:43;98521.50;;;17.77;83.64
54554;BME280;40450;55.848;-3.572;2022-09-12T03:48:13;98519.54;;;17.67;83.25
54554;BME280;40450;55.848;-3.572;2022-09-12T03:50:44;98520.00;;;17.53;83.94
54554;BME280;40450;55.848;-3.572;2022-09-12T03:53:14;98522.76;;;17.27;84.25
54554;BME280;40450;55.848;-3.572;2022-09-12T03:55:44;98519.67;;;16.88;84.89
54554;BME280;40450;55.848;-3.572;2022-09-12T03:58:14;98521.74;;;16.43;86.00
54554;BME280;40450;55.848;-3.572;2022-09-12T04:00:45;98514.85;;;17.34;83.82
54554;BME280;40450;55.848;-3.572;2022-09-12T04:03:15;98513.09;;;16.75;85.43
54554;BME280;40450;55.848;-3.572;2022-09-12T04:05:46;98514.71;;;16.69;85.72
54554;BME280;40450;55.848;-3.572;2022-09-12T04:08:16;98518.25;;;17.17;84.40
54554;BME280;40450;55.848;-3.572;2022-09-12T04:10:46;98522.24;;;17.74;83.59
54554;BME280;40450;55.848;-3.572;2022-09-12T04:13:16;98524.01;;;17.28;83.72
54554;BME280;40450;55.848;-3.572;2022-09-12T04:15:55;98526.82;;;17.77;82.51
54554;BME280;40450;55.848;-3.572;2022-09-12T04:18:17;98526.23;;;17.62;82.83
54554;BME280;40450;55.848;-3.572;2022-09-12T04:20:47;98524.74;;;17.50;83.73
54554;BME280;40450;55.848;-3.572;2022-09-12T04:23:18;98522.37;;;17.73;82.84
54554;BME280;40450;55.848;-3.572;2022-09-12T04:25:53;98515.39;;;18.25;81.54
54554;BME280;40450;55.848;-3.572;2022-09-12T04:28:18;98515.63;;;17.55;82.02
54554;BME280;40450;55.848;-3.572;2022-09-12T04:30:49;98526.37;;;16.51;85.93
54554;BME280;40450;55.848;-3.572;2022-09-12T04:33:19;98519.94;;;17.74;83.10
54554;BME280;40450;55.848;-3.572;2022-09-12T04:35:49;98525.25;;;17.72;82.52
54554;BME280;40450;55.848;-3.572;2022-09-12T04:38:19;98528.87;;;17.90;82.36
54554;BME280;40450;55.848;-3.572;2022-09-12T04:40:50;98530.90;;;16.83;84.05
54554;BME280;40450;55.848;-3.572;2022-09-12T04:43:20;98528.92;;;17.90;82.83
54554;BME280;40450;55.848;-3.572;2022-09-12T04:45:50;98534.17;;;17.83;81.94
54554;BME280;40450;55.848;-3.572;2022-09-12T04:48:21;98532.99;;;17.74;82.07
54554;BME280;40450;55.848;-3.572;2022-09-12T04:50:51;98532.45;;;17.98;81.15
54554;BME280;40450;55.848;-3.572;2022-09-12T04:53:21;98534.37;;;18.11;80.81
54554;BME280;40450;55.848;-3.572;2022-09-12T04:55:52;98532.98;;;17.97;81.07
54554;BME280;40450;55.848;-3.572;2022-09-12T04:58:22;98536.52;;;17.99;81.13
54554;BME280;40450;55.848;-3.572;2022-09-12T05:00:53;98536.60;;;17.53;82.12
54554;BME280;40450;55.848;-3.572;2022-09-12T05:03:23;98539.75;;;17.81;81.46
54554;BME280;40450;55.848;-3.572;2022-09-12T05:05:53;98541.29;;;17.94;81.08
54554;BME280;40450;55.848;-3.572;2022-09-12T05:08:24;98541.54;;;18.45;80.67
54554;BME280;40450;55.848;-3.572;2022-09-12T05:10:54;98542.85;;;18.08;80.74
54554;BME280;40450;55.848;-3.572;2022-09-12T05:13:24;98544.06;;;17.95;80.74
54554;BME280;40450;55.848;-3.572;2022-09-12T05:15:54;98542.81;;;18.13;80.30
54554;BME280;40450;55.848;-3.572;2022-09-12T05:18:25;98548.08;;;17.99;80.50
54554;BME280;40450;55.848;-3.572;2022-09-12T05:20:55;98548.39;;;18.44;79.79
54554;BME280;40450;55.848;-3.572;2022-09-12T05:23:25;98551.44;;;17.84;80.57
54554;BME280;40450;55.848;-3.572;2022-09-12T05:25:57;98553.20;;;17.80;81.10
54554;BME280;40450;55.848;-3.572;2022-09-12T05:28:29;98548.74;;;18.33;80.21
54554;BME280;40450;55.848;-3.572;2022-09-12T05:31:00;98553.43;;;17.52;81.57
54554;BME280;40450;55.848;-3.572;2022-09-12T05:33:26;98550.47;;;18.44;80.17
54554;BME280;40450;55.848;-3.572;2022-09-12T05:35:57;98551.86;;;18.48;79.06
54554;BME280;40450;55.848;-3.572;2022-09-12T05:38:27;98555.96;;;18.42;78.84
54554;BME280;40450;55.848;-3.572;2022-09-12T05:41:02;98563.18;;;17.47;81.39
54554;BME280;40450;55.848;-3.572;2022-09-12T05:43:28;98558.55;;;17.71;80.84
54554;BME280;40450;55.848;-3.572;2022-09-12T05:46:00;98566.79;;;16.60;84.38
54554;BME280;40450;55.848;-3.572;2022-09-12T05:48:29;98563.30;;;17.86;81.12
54554;BME280;40450;55.848;-3.572;2022-09-12T05:51:00;98563.97;;;17.65;81.01
54554;BME280;40450;55.848;-3.572;2022-09-12T05:53:30;98560.19;;;17.69;80.97
54554;BME280;40450;55.848;-3.572;2022-09-12T05:56:03;98557.70;;;17.93;80.30
54554;BME280;40450;55.848;-3.572;2022-09-12T05:58:30;98559.62;;;17.42;81.50
54554;BME280;40450;55.848;-3.572;2022-09-12T06:01:02;98556.81;;;17.93;79.95
54554;BME280;40450;55.848;-3.572;2022-09-12T06:03:31;98558.11;;;18.02;80.31
54554;BME280;40450;55.848;-3.572;2022-09-12T06:06:02;98560.26;;;17.61;80.77
54554;BME280;40450;55.848;-3.572;2022-09-12T06:08:33;98566.77;;;16.70;83.38
54554;BME280;40450;55.848;-3.572;2022-09-12T06:11:03;98560.80;;;17.78;80.44
54554;BME280;40450;55.848;-3.572;2022-09-12T06:13:33;98561.08;;;17.70;80.52
54554;BME280;40450;55.848;-3.572;2022-09-12T06:16:04;98562.93;;;18.05;79.90
54554;BME280;40450;55.848;-3.572;2022-09-12T06:18:33;98565.09;;;18.25;79.92
54554;BME280;40450;55.848;-3.572;2022-09-12T06:21:04;98568.89;;;17.85;80.35
54554;BME280;40450;55.848;-3.572;2022-09-12T06:23:33;98571.82;;;18.71;78.57
54554;BME280;40450;55.848;-3.572;2022-09-12T06:26:06;98573.95;;;18.66;78.37
54554;BME280;40450;55.848;-3.572;2022-09-12T06:28:36;98573.33;;;18.33;78.58
54554;BME280;40450;55.848;-3.572;2022-09-12T06:31:07;98575.44;;;18.04;79.21
54554;BME280;40450;55.848;-3.572;2022-09-12T06:33:37;98570.64;;;18.49;77.91
54554;BME280;40450;55.848;-3.572;2022-09-12T06:36:08;98573.44;;;17.60;80.33
54554;BME280;40450;55.848;-3.572;2022-09-12T06:38:36;98577.28;;;17.40;80.93
54554;BME280;40450;55.848;-3.572;2022-09-12T06:41:08;98582.11;;;16.68;83.16
54554;BME280;40450;55.848;-3.572;2022-09-12T06:43:37;98576.14;;;17.46;81.50
54554;BME280;40450;55.848;-3.572;2022-09-12T06:46:07;98573.87;;;18.01;79.94
54554;BME280;40450;55.848;-3.572;2022-09-12T06:48:37;98578.60;;;18.11;79.15
54554;BME280;40450;55.848;-3.572;2022-09-12T06:51:10;98572.15;;;17.93;79.57
54554;BME280;40450;55.848;-3.572;2022-09-12T06:53:38;98563.84;;;18.39;78.05
54554;BME280;40450;55.848;-3.572;2022-09-12T06:56:10;98568.42;;;17.96;79.16
54554;BME280;40450;55.848;-3.572;2022-09-12T06:58:38;98574.03;;;17.49;80.37
54554;BME280;40450;55.848;-3.572;2022-09-12T07:01:10;98574.43;;;17.96;79.38
54554;BME280;40450;55.848;-3.572;2022-09-12T07:03:39;98578.01;;;17.94;79.39
54554;BME280;40450;55.848;-3.572;2022-09-12T07:06:10;98581.99;;;18.17;78.43
54554;BME280;40450;55.848;-3.572;2022-09-12T07:08:40;98589.73;;;17.03;81.82
54554;BME280;40450;55.848;-3.572;2022-09-12T07:11:13;98592.35;;;16.99;81.98
54554;BME280;40450;55.848;-3.572;2022-09-12T07:13:42;98594.63;;;16.42;84.34
54554;BME280;40450;55.848;-3.572;2022-09-12T07:16:11;98596.74;;;16.45;84.44
54554;BME280;40450;55.848;-3.572;2022-09-12T07:18:41;98598.60;;;16.72;84.52
54554;BME280;40450;55.848;-3.572;2022-09-12T07:21:13;98601.23;;;16.16;86.32
54554;BME280;40450;55.848;-3.572;2022-09-12T07:23:41;98603.75;;;16.86;84.93
54554;BME280;40450;55.848;-3.572;2022-09-12T07:26:13;98603.12;;;17.09;83.91
54554;BME280;40450;55.848;-3.572;2022-09-12T07:28:43;98603.78;;;17.44;83.40
54554;BME280;40450;55.848;-3.572;2022-09-12T07:31:14;98603.74;;;17.22;83.64
54554;BME280;40450;55.848;-3.572;2022-09-12T07:33:43;98603.83;;;17.22;84.14
54554;BME280;40450;55.848;-3.572;2022-09-12T07:36:14;98604.82;;;17.33;83.43
54554;BME280;40450;55.848;-3.572;2022-09-12T07:38:44;98602.33;;;17.33;83.33
54554;BME280;40450;55.848;-3.572;2022-09-12T07:41:16;98608.36;;;16.97;84.11
54554;BME280;40450;55.848;-3.572;2022-09-12T07:43:44;98610.15;;;16.87;84.47
54554;BME280;40450;55.848;-3.572;2022-09-12T07:46:14;98602.93;;;17.35;83.90
54554;BME280;40450;55.848;-3.572;2022-09-12T07:48:49;98599.84;;;17.44;83.95
54554;BME280;40450;55.848;-3.572;2022-09-12T07:51:15;98595.85;;;17.67;82.41
54554;BME280;40450;55.848;-3.572;2022-09-12T07:53:46;98596.61;;;17.38;83.43
54554;BME280;40450;55.848;-3.572;2022-09-12T07:56:16;98600.78;;;16.71;85.49
54554;BME280;40450;55.848;-3.572;2022-09-12T07:58:46;98596.68;;;17.13;84.56
54554;BME280;40450;55.848;-3.572;2022-09-12T08:01:17;98593.14;;;17.36;84.09
54554;BME280;40450;55.848;-3.572;2022-09-12T08:03:47;98590.54;;;17.21;84.53
54554;BME280;40450;55.848;-3.572;2022-09-12T08:06:19;98592.41;;;17.17;84.12
54554;BME280;40450;55.848;-3.572;2022-09-12T08:08:47;98592.38;;;17.14;84.78
54554;BME280;40450;55.848;-3.572;2022-09-12T08:11:19;98595.41;;;17.48;84.40
54554;BME280;40450;55.848;-3.572;2022-09-12T08:13:48;98597.40;;;17.73;82.56
54554;BME280;40450;55.848;-3.572;2022-09-12T08:16:19;98598.57;;;18.31;81.65
54554;BME280;40450;55.848;-3.572;2022-09-12T08:18:48;98597.41;;;18.29;81.32
54554;BME280;40450;55.848;-3.572;2022-09-12T08:21:20;98596.34;;;18.23;80.93
54554;BME280;40450;55.848;-3.572;2022-09-12T08:23:52;98596.89;;;17.62;82.44
54554;BME280;40450;55.848;-3.572;2022-09-12T08:26:19;98597.84;;;18.08;81.17
54554;BME280;40450;55.848;-3.572;2022-09-12T08:28:49;98603.00;;;17.89;81.18
54554;BME280;40450;55.848;-3.572;2022-09-12T08:31:22;98605.58;;;17.10;84.13
54554;BME280;40450;55.848;-3.572;2022-09-12T08:33:51;98605.99;;;17.78;81.92
54554;BME280;40450;55.848;-3.572;2022-09-12T08:36:22;98606.35;;;17.67;82.74
54554;BME280;40450;55.848;-3.572;2022-09-12T08:38:55;98604.19;;;18.10;81.90
54554;BME280;40450;55.848;-3.572;2022-09-12T08:41:24;98607.68;;;17.74;82.00
54554;BME280;40450;55.848;-3.572;2022-09-12T08:46:25;98606.80;;;18.58;80.80
54554;BME280;40450;55.848;-3.572;2022-09-12T08:48:52;98605.15;;;19.07;79.94
54554;BME280;40450;55.848;-3.572;2022-09-12T08:51:22;98606.74;;;18.09;81.07
54554;BME280;40450;55.848;-3.572;2022-09-12T08:53:53;98606.07;;;18.43;80.81
54554;BME280;40450;55.848;-3.572;2022-09-12T08:56:23;98603.84;;;18.69;80.50
54554;BME280;40450;55.848;-3.572;2022-09-12T08:58:53;98606.50;;;18.12;81.49
54554;BME280;40450;55.848;-3.572;2022-09-12T09:01:28;98600.14;;;17.32;83.06
54554;BME280;40450;55.848;-3.572;2022-09-12T10:54:16;98734.82;;;6.44;100.00
54554;BME280;40450;55.848;-3.572;2022-09-12T10:56:43;98741.01;;;8.44;100.00
54554;BME280;40450;55.848;-3.572;2022-09-12T10:59:18;98733.23;;;8.87;99.98
54554;BME280;40450;55.848;-3.572;2022-09-12T11:01:41;98730.80;;;10.21;97.55
54554;BME280;40450;55.848;-3.572;2022-09-12T11:04:20;98734.50;;;11.32;96.05
54554;BME280;40450;55.848;-3.572;2022-09-12T11:06:48;98733.09;;;10.95;93.82
54554;BME280;40450;55.848;-3.572;2022-09-12T11:09:16;98739.36;;;10.12;96.31
54554;BME280;40450;55.848;-3.572;2022-09-12T11:11:49;98731.12;;;11.07;94.38
54554;BME280;40450;55.848;-3.572;2022-09-12T11:14:19;98733.60;;;11.65;92.69
54554;BME280;40450;55.848;-3.572;2022-09-12T11:16:47;98733.70;;;12.58;90.79
54554;BME280;40450;55.848;-3.572;2022-09-12T11:19:22;98739.23;;;13.18;89.18
54554;BME280;40450;55.848;-3.572;2022-09-12T11:21:53;98729.75;;;14.57;85.80
54554;BME280;40450;55.848;-3.572;2022-09-12T11:26:52;98719.39;;;15.38;84.23
54554;BME280;40450;55.848;-3.572;2022-09-12T11:29:20;98718.56;;;14.94;82.09
54554;BME280;40450;55.848;-3.572;2022-09-12T11:31:54;98713.82;;;15.55;79.22
54554;BME280;40450;55.848;-3.572;2022-09-12T11:34:16;98711.48;;;15.86;81.47
54554;BME280;40450;55.848;-3.572;2022-09-12T11:36:52;98714.47;;;15.00;80.90
54554;BME280;40450;55.848;-3.572;2022-09-12T11:39:15;98715.42;;;15.44;79.64
54554;BME280;40450;55.848;-3.572;2022-09-12T11:41:48;98709.89;;;16.14;78.59
54554;BME280;40450;55.848;-3.572;2022-09-12T11:44:19;98712.51;;;15.27;80.87
54554;BME280;40450;55.848;-3.572;2022-09-12T11:46:45;98714.45;;;13.39;87.49
54554;BME280;40450;55.848;-3.572;2022-09-12T11:49:20;98705.93;;;13.87;86.04
54554;BME280;40450;55.848;-3.572;2022-09-12T11:51:51;98704.71;;;14.59;83.74
54554;BME280;40450;55.848;-3.572;2022-09-12T11:54:22;98699.75;;;15.70;79.36
54554;BME280;40450;55.848;-3.572;2022-09-12T11:56:48;98696.77;;;14.30;83.75
54554;BME280;40450;55.848;-3.572;2022-09-12T11:59:27;98689.25;;;15.83;79.41
54554;BME280;40450;55.848;-3.572;2022-09-12T12:01:50;98701.46;;;16.31;77.89
54554;BME280;40450;55.848;-3.572;2022-09-12T12:04:23;98702.82;;;16.24;77.30
54554;BME280;40450;55.848;-3.572;2022-09-12T12:06:51;98701.03;;;16.43;74.76
54554;BME280;40450;55.848;-3.572;2022-09-12T12:09:18;98702.21;;;15.82;77.28
54554;BME280;40450;55.848;-3.572;2022-09-12T12:11:52;98701.03;;;16.19;77.76
54554;BME280;40450;55.848;-3.572;2022-09-12T12:14:21;98693.12;;;16.24;75.54
54554;BME280;40450;55.848;-3.572;2022-09-12T12:16:49;98693.25;;;16.35;74.82
54554;BME280;40450;55.848;-3.572;2022-09-12T12:19:30;98695.67;;;16.76;75.09
54554;BME280;40450;55.848;-3.572;2022-09-12T12:21:50;98697.61;;;17.23;74.87
54554;BME280;40450;55.848;-3.572;2022-09-12T12:24:21;98701.48;;;16.52;75.71
54554;BME280;40450;55.848;-3.572;2022-09-12T12:26:56;98707.27;;;17.20;75.44
54554;BME280;40450;55.848;-3.572;2022-09-12T12:34:27;98713.96;;;17.66;71.87
54554;BME280;40450;55.848;-3.572;2022-09-12T12:36:51;98715.57;;;16.03;75.64
54554;BME280;40450;55.848;-3.572;2022-09-12T12:41:52;98724.01;;;14.22;83.11
54554;BME280;40450;55.848;-3.572;2022-09-12T12:49:26;98741.28;;;15.26;80.53
54554;BME280;40450;55.848;-3.572;2022-09-12T12:51:57;98749.00;;;12.93;87.37
54554;BME280;40450;55.848;-3.572;2022-09-12T12:54:30;98759.38;;;12.96;88.41
54554;BME280;40450;55.848;-3.572;2022-09-12T12:57:01;98748.45;;;12.61;88.77
54554;BME280;40450;55.848;-3.572;2022-09-12T12:59:24;98750.76;;;13.71;85.43
54554;BME280;40450;55.848;-3.572;2022-09-12T13:01:56;98752.10;;;13.98;82.33
54554;BME280;40450;55.848;-3.572;2022-09-12T13:04:27;98746.97;;;14.12;82.23
54554;BME280;40450;55.848;-3.572;2022-09-12T13:06:59;98761.75;;;13.01;84.94
54554;BME280;40450;55.848;-3.572;2022-09-12T13:09:31;98767.48;;;13.86;81.24
54554;BME280;40450;55.848;-3.572;2022-09-12T13:11:59;98756.21;;;14.50;79.65
54554;BME280;40450;55.848;-3.572;2022-09-12T13:14:33;98762.17;;;14.35;78.83
54554;BME280;40450;55.848;-3.572;2022-09-12T13:16:59;98756.09;;;14.08;79.88
54554;BME280;40450;55.848;-3.572;2022-09-12T13:19:29;98755.90;;;14.10;80.68
54554;BME280;40450;55.848;-3.572;2022-09-12T13:22:00;98759.80;;;14.14;82.09
54554;BME280;40450;55.848;-3.572;2022-09-12T13:24:27;98761.22;;;15.41;77.37
54554;BME280;40450;55.848;-3.572;2022-09-12T13:26:58;98779.58;;;13.36;83.84
54554;BME280;40450;55.848;-3.572;2022-09-12T13:29:28;98778.78;;;13.13;84.63
54554;BME280;40450;55.848;-3.572;2022-09-12T13:32:00;98773.05;;;11.96;88.35
54554;BME280;40450;55.848;-3.572;2022-09-12T13:34:31;98781.20;;;11.04;91.06
54554;BME280;40450;55.848;-3.572;2022-09-12T13:39:36;98774.30;;;13.64;81.95
54554;BME280;40450;55.848;-3.572;2022-09-12T13:42:21;98762.23;;;13.11;82.44
54554;BME280;40450;55.848;-3.572;2022-09-12T13:44:34;98771.50;;;12.69;82.61
54554;BME280;40450;55.848;-3.572;2022-09-12T13:47:01;98774.36;;;11.92;83.78
54554;BME280;40450;55.848;-3.572;2022-09-12T13:49:34;98772.24;;;10.59;88.25
54554;BME280;40450;55.848;-3.572;2022-09-12T13:52:03;98774.40;;;11.27;87.63
54554;BME280;40450;55.848;-3.572;2022-09-12T13:54:32;98767.97;;;11.86;85.40
54554;BME280;40450;55.848;-3.572;2022-09-12T13:57:01;98777.06;;;12.19;84.81
54554;BME280;40450;55.848;-3.572;2022-09-12T13:59:37;98771.31;;;12.59;82.97
54554;BME280;40450;55.848;-3.572;2022-09-12T14:04:37;98787.34;;;11.19;85.67
54554;BME280;40450;55.848;-3.572;2022-09-12T14:07:09;98775.95;;;12.25;81.45
54554;BME280;40450;55.848;-3.572;2022-09-12T14:09:37;98782.09;;;12.05;83.25
54554;BME280;40450;55.848;-3.572;2022-09-12T14:12:04;98782.32;;;11.25;85.24
54554;BME280;40450;55.848;-3.572;2022-09-12T14:14:35;98781.19;;;12.20;82.73
54554;BME280;40450;55.848;-3.572;2022-09-12T14:19:34;98780.41;;;11.02;87.78
54554;BME280;40450;55.848;-3.572;2022-09-12T14:22:08;98777.20;;;12.67;84.75
54554;BME280;40450;55.848;-3.572;2022-09-12T14:24:35;98776.66;;;12.61;84.70
54554;BME280;40450;55.848;-3.572;2022-09-12T14:27:05;98770.56;;;13.14;82.96
54554;BME280;40450;55.848;-3.572;2022-09-12T14:29:35;98761.39;;;13.67;83.01
54554;BME280;40450;55.848;-3.572;2022-09-12T14:32:14;98760.65;;;13.28;81.42
54554;BME280;40450;55.848;-3.572;2022-09-12T14:34:38;98760.11;;;12.83;83.43
54554;BME280;40450;55.848;-3.572;2022-09-12T14:37:07;98771.42;;;12.76;84.32
54554;BME280;40450;55.848;-3.572;2022-09-12T14:39:40;98767.11;;;12.98;82.29
54554;BME280;40450;55.848;-3.572;2022-09-12T14:42:13;98763.94;;;12.48;84.62
54554;BME280;40450;55.848;-3.572;2022-09-12T14:44:38;98773.56;;;13.64;80.62
54554;BME280;40450;55.848;-3.572;2022-09-12T14:47:12;98781.62;;;12.66;82.61
54554;BME280;40450;55.848;-3.572;2022-09-12T14:49:39;98772.76;;;13.30;80.89
54554;BME280;40450;55.848;-3.572;2022-09-12T14:54:39;98783.90;;;13.00;80.20
54554;BME280;40450;55.848;-3.572;2022-09-12T14:59:40;98767.56;;;13.00;81.66
54554;BME280;40450;55.848;-3.572;2022-09-12T15:02:20;98769.30;;;13.62;78.17
54554;BME280;40450;55.848;-3.572;2022-09-12T15:04:42;98773.55;;;12.86;78.77
54554;BME280;40450;55.848;-3.572;2022-09-12T15:07:13;98774.03;;;13.06;78.08
54554;BME280;40450;55.848;-3.572;2022-09-12T15:09:42;98775.27;;;12.94;79.36
54554;BME280;40450;55.848;-3.572;2022-09-12T15:12:12;98767.21;;;13.50;77.09
54554;BME280;40450;55.848;-3.572;2022-09-12T15:14:42;98767.26;;;14.52;75.17
54554;BME280;40450;55.848;-3.572;2022-09-12T15:17:13;98764.80;;;14.88;74.83
54554;BME280;40450;55.848;-3.572;2022-09-12T15:19:43;98767.34;;;16.29;70.33
54554;BME280;40450;55.848;-3.572;2022-09-12T15:22:13;98767.80;;;17.29;67.57
54554;BME280;40450;55.848;-3.572;2022-09-12T15:24:44;98766.13;;;17.85;68.59
54554;BME280;40450;55.848;-3.572;2022-09-12T15:27:14;98765.07;;;17.71;62.42
54554;BME280;40450;55.848;-3.572;2022-09-12T15:29:45;98755.24;;;18.71;61.17
54554;BME280;40450;55.848;-3.572;2022-09-12T15:32:21;98768.93;;;17.34;63.14